Flight Track Log - Related Links

Times and Time Zones

All times are in EDT time to prevent confusion due to time zone crossing. See the DAL3970 flight status page for this flight to view local times or setup timezone preferences in your user account.

Time Position Orientation Groundspeed Altitude Reporting Facility
EDT Latitude Longitude Course Direction KTS MPH feet Rate Location/Type
Thu 08:40:04 AM 44.7800 -89.5800 90° East 198 228 3,500  Level Minneapolis Center
Thu 08:41:05 AM 44.7783 -89.4839 91° East 235 270 5,100 1,951 Climbing Minneapolis Center
Thu 08:42:00 AM 44.7667 -89.1192 90° East  Level FlightAware Approximate
Thu 08:42:07 AM 44.7758 -89.3758 92° East 284 327 7,500  Level Minneapolis Center
Thu 08:43:00 AM 44.7667 -88.9823 90° East  Level FlightAware Approximate
Thu 08:43:08 AM 44.7758 -89.2542 90° East 300 345 10,200  Level Minneapolis Center
Thu 08:44:00 AM 44.7637 -88.8459 101° East  Level FlightAware Approximate
Thu 08:44:10 AM 44.7747 -89.1242 91° East 319 367 11,800  Level Minneapolis Center
Thu 08:45:00 AM 44.7501 -88.7022 90° East  Level FlightAware Approximate
Thu 08:45:11 AM 44.7717 -89.0036 92° East 341 392 13,000  Level Minneapolis Center
Thu 08:46:13 AM 44.7689 -88.8383 91° East 361 415 14,300 1,220 Climbing Minneapolis Center
Thu 08:47:14 AM 44.7667 -88.6872 91° East 378 435 15,500 1,328 Climbing Minneapolis Center
Thu 08:48:15 AM 44.7642 -88.5328 91° East 388 447 17,000 1,366 Climbing Minneapolis Center
Thu 08:49:17 AM 44.7619 -88.3822 91° East 387 445 18,300 976 Climbing Minneapolis Center
Thu 08:50:18 AM 44.7586 -88.2261 92° East 396 456 19,000 683 Climbing Minneapolis Center
Thu 08:51:20 AM 44.7547 -88.0606 92° East 413 475 19,700 780 Climbing Minneapolis Center
Thu 08:52:21 AM 44.7506 -87.8983 92° East 417 480 20,600 976 Climbing Minneapolis Center
Thu 08:53:23 AM 44.7481 -87.7378 91° East 413 475 21,700 1,073 Climbing Minneapolis Center
Thu 08:54:24 AM 44.7419 -87.5792 93° East 409 471 22,800 634 Climbing Minneapolis Center
Thu 08:55:26 AM 44.7369 -87.4175 92° East 414 476 23,000 98 Climbing Minneapolis Center
Thu 08:56:27 AM 44.7311 -87.2125 92° East 437 503 23,000  Level Minneapolis Center
Thu 08:57:28 AM 44.7250 -87.0358 93° East 451 519 23,000  Level Minneapolis Center
Thu 08:58:30 AM 44.7189 -86.8561 93° East 459 528 23,000  Level Minneapolis Center
Thu 08:59:31 AM 44.6625 -86.7008 117° Southeast 447 514 23,000  Level Minneapolis Center
Thu 09:00:32 AM 44.6014 -86.5492 119° Southeast 448 516 23,000  Level Minneapolis Center
Thu 09:01:34 AM 44.5386 -86.3986 120° Southeast 452 520 23,000  Level Minneapolis Center
Thu 09:02:35 AM 44.4758 -86.2497 121° Southeast 451 519 23,000  Level Minneapolis Center
Thu 09:03:37 AM 44.4008 -86.0694 120° Southeast 452 520 23,000  Level Minneapolis Center
Thu 09:04:38 AM 44.3378 -85.9197 120° Southeast 451 519 23,000  Level Minneapolis Center
Thu 09:05:40 AM 44.2744 -85.7708 121° Southeast 450 518 23,000  Level Minneapolis Center
Thu 09:06:41 AM 44.2108 -85.6214 121° Southeast 451 519 23,000  Level Minneapolis Center
Thu 09:07:42 AM 44.1464 -85.4697 121° Southeast 455 524 23,000  Level Minneapolis Center
Thu 09:08:44 AM 44.0822 -85.3214 121° Southeast 452 520 23,000  Level Minneapolis Center
Thu 09:09:45 AM 44.0194 -85.1775 121° Southeast 450 518 23,000  Level Minneapolis Center
Thu 09:10:47 AM 43.9428 -85.0017 121° Southeast 446 513 23,000  Level Minneapolis Center
Thu 09:11:48 AM 43.8794 -84.8561 121° Southeast 444 511 23,000 -98 Level Minneapolis Center
Thu 09:12:49 AM 43.8147 -84.7094 121° Southeast 444 511 22,800 -927 Descending Minneapolis Center
Thu 09:13:51 AM 43.7525 -84.5686 121° Southeast 440 506 21,100 -1,610 Descending Minneapolis Center
Thu 09:14:52 AM 43.6797 -84.4614 133° Southeast 405 466 19,500 -1,659 Descending Minneapolis Center
Thu 09:15:54 AM 43.5956 -84.3892 148° Southeast 375 432 17,700 -1,415 Descending Minneapolis Center
Thu 09:16:38 AM 43.5331 -84.3344 148° Southeast 352 405 17,000 -400 Descending Cleveland Center
Thu 09:17:39 AM 43.4417 -84.2575 149° Southeast 352 405 17,000  Level Cleveland Center
Thu 09:18:38 AM 43.3628 -84.1869 147° Southeast 352 405 17,000  Level Cleveland Center
Thu 09:19:38 AM 43.2794 -84.1136 147° Southeast 357 411 17,000 -50 Level Cleveland Center
Thu 09:20:38 AM 43.2000 -84.0494 150° Southeast 357 411 16,900 -450 Descending Cleveland Center
Thu 09:21:38 AM 43.1169 -83.9764 147° Southeast 357 411 16,100 -1,050 Descending Cleveland Center
Thu 09:22:38 AM 43.0356 -83.9067 148° Southeast 357 411 14,800 -1,404 Descending Cleveland Center
Thu 09:23:12 AM 42.9806 -83.8611 149° Southeast 332 382 13,900 -1,400 Descending Cleveland Center
Thu 09:23:38 AM 42.9561 -83.8400 148° Southeast 352 405 13,400 -1,271 Descending Cleveland Center
Thu 09:24:37 AM 42.8747 -83.7706 148° Southeast 314 361 12,100 -789 Descending Cleveland Center
Thu 09:25:32 AM 42.8133 -83.7250 151° Southeast 255 293 11,900 -1,086 Descending Cleveland Center
Thu 09:26:33 AM 42.7503 -83.6681 146° Southeast 280 322 10,000 -1,333 Descending Cleveland Center
Thu 09:27:38 AM 42.6994 -83.6147 142° Southeast 272 313 9,100 -992 Descending Cleveland Center
Thu 09:28:34 AM 42.6328 -83.5408 141° Southeast 269 310 8,000 -1,333 Descending Cleveland Center
Thu 09:29:35 AM 42.5739 -83.4789 142° Southeast 280 322 6,500 -919 Descending Cleveland Center
Thu 09:30:38 AM 42.5150 -83.4114 140° Southeast 272 313 6,100 -732 Descending Cleveland Center
Thu 09:31:38 AM 42.4519 -83.3439 142° Southeast 272 313 5,000 -1,169 Descending Cleveland Center
Thu 09:31:55 AM 42.4378 -83.3319 148° Southeast 265 305 4,600 -1,000 Descending Cleveland Center
Thu 09:32:38 AM 42.3883 -83.3017 156° South 261 300 4,000 -1,000 Descending Cleveland Center
Thu 09:32:55 AM 42.3717 -83.3011 179° South 225 259 3,600 -917 Descending Cleveland Center
Thu 09:33:50 AM 42.3239 -83.3017 180° South 164 189 2,900 -764 Descending Cleveland Center

Login

Don't have an account? Register now (free) for customized features, flight alerts, and more!